Hot Springs, AR

7:23 PM CDT on August 31, 2016 (GMT -0500)
APRSWXNET | | Change Station

Elev 600 ft 34.51 °N, 93.05 °W | Updated 30 minutes ago

Clear
Clear
87 °F
Feels Like 94 °F
N
0
Wind Variable Wind from NNW
Gusts 0.0 mph

Today
High -- | Low -- °F
--% Chance of Precip.
Yesterday
High -- | Low -- °F
Precip. -- in
Pressure 29.92 in
Visibility 10.0 miles
Clouds Clear
Heat Index 94 °F
Dew Point 73 °F
Humidity 63%
Rainfall in
Snow Depth Not available.
6:44 AM 7:38 PM
Waning Crescent, 0% visible
METAR KHOT 312353Z AUTO 00000KT 10SM CLR 29/24 A2994 RMK AO2 SLP131 T02890244 10339 20289 55003
Pressure 29.92 in
Visibility 10.0 miles
Clouds Clear
Heat Index 94 °F
Dew Point 73 °F
Humidity 63%
Rainfall in
Snow Depth Not available.
6:44 AM 7:38 PM
Waning Crescent, 0% visible
METAR KHOT 312353Z AUTO 00000KT 10SM CLR 29/24 A2994 RMK AO2 SLP131 T02890244 10339 20289 55003

10-Day Weather Forecast

Almanac

Astronomy

Aug. 31, 2016 Rise Set
Actual Time
Civil Twilight
Nautical Twilight
Astronomical Twilight
Moon
Length of Visible Light
Length of Day
Tomorrow will be .
, % of the Moon is Illuminated

Today's Extremes

State Highs State Lows

Community

WunderPhotos

Upload Photos

1,936,234 photos uploaded!

WunderBlog® & News

Nearby

Air Quality

  Air Quality AQ Index Pollutant
Not available.

Snow Depth

Station Depth Elevation

Earthquake Activity

City Distance Mag. Time & Date
Minimum magnitude displayed is 2.5.

Coastal Water Temperatures

Place Temperature

Stations

Nearby Weather Stations

Station Location Temp. Windchill Dew Point Humidity Wind Precip. Elev Updated Type
                   

Watches & Warnings

There are currently no watches in effect.